Time;durP1;ratioP1;P1;durP2;ratioP2;P2;SDS_P1;SDS_P2;PMS_P1;PMS_P2;Temp;Humidity;BMP_temperature;BMP_pressure;BME280_temperature;BME280_humidity;BME280_pressure;Samples;Min_cycle;Max_cycle;Signal;HPM_P1;HPM_P2
2022/09/13 00:02:03;;;;;;;13.03;7.10;;;;;;;;;;5093135;28;20453;-71
2022/09/13 00:04:30;;;;;;;7.87;6.93;;;;;;;;;;5092219;28;20606;-71
2022/09/13 00:06:58;;;;;;;10.00;6.57;;;;;;;;;;5092849;28;20473;-71
2022/09/13 00:09:26;;;;;;;8.90;6.50;;;;;;;;;;5092850;28;20462;-71
2022/09/13 00:11:53;;;;;;;8.70;6.90;;;;;;;;;;5092802;28;20545;-71
2022/09/13 00:14:20;;;;;;;7.37;6.27;;;;;;;;;;5091879;28;20477;-71
2022/09/13 00:16:47;;;;;;;8.17;7.37;;;;;;;;;;5092675;28;20908;-71
2022/09/13 00:19:14;;;;;;;8.40;7.47;;;;;;;;;;5092802;28;20478;-71
2022/09/13 00:21:41;;;;;;;30.30;8.83;;;;;;;;;;5092773;28;20959;-71
2022/09/13 00:24:09;;;;;;;8.33;6.50;;;;;;;;;;5092415;28;20467;-71
2022/09/13 00:26:37;;;;;;;9.30;7.47;;;;;;;;;;5092556;28;20932;-71
2022/09/13 00:29:04;;;;;;;8.53;7.10;;;;;;;;;;5092493;28;20458;-71
2022/09/13 00:31:31;;;;;;;9.80;7.20;;;;;;;;;;5092423;28;20823;-71
2022/09/13 00:33:59;;;;;;;8.53;6.90;;;;;;;;;;5092125;28;20466;-71
2022/09/13 00:36:26;;;;;;;10.93;7.23;;;;;;;;;;5092510;28;20458;-71
2022/09/13 00:38:53;;;;;;;9.30;7.20;;;;;;;;;;5092345;28;20844;-71
2022/09/13 00:41:21;;;;;;;10.07;7.60;;;;;;;;;;5092462;28;20459;-71
2022/09/13 00:43:51;;;;;;;17.20;7.83;;;;;;;;;;5092051;28;20471;-70
2022/09/13 00:46:21;;;;;;;8.90;6.57;;;;;;;;;;5092446;28;20458;-70
2022/09/13 00:48:50;;;;;;;13.93;7.63;;;;;;;;;;5092277;28;20451;-70
2022/09/13 00:51:17;;;;;;;9.23;7.57;;;;;;;;;;5092215;28;20936;-70
2022/09/13 00:53:48;;;;;;;11.53;9.30;;;;;;;;;;5092236;28;20596;-71
2022/09/13 00:56:18;;;;;;;8.80;7.90;;;;;;;;;;5092364;28;20453;-71
2022/09/13 00:58:49;;;;;;;11.00;8.40;;;;;;;;;;5092600;28;20518;-71
2022/09/13 01:01:19;;;;;;;11.50;7.50;;;;;;;;;;5092756;28;20437;-71
2022/09/13 01:03:47;;;;;;;9.50;8.50;;;;;;;;;;5092094;28;20467;-71
2022/09/13 01:06:16;;;;;;;9.20;7.80;;;;;;;;;;5092038;28;20812;-71
2022/09/13 01:08:44;;;;;;;8.90;7.57;;;;;;;;;;5092215;28;20788;-71
2022/09/13 01:11:13;;;;;;;12.60;8.80;;;;;;;;;;5092093;28;20450;-71
2022/09/13 01:13:41;;;;;;;8.67;7.77;;;;;;;;;;5091440;28;20470;-71
2022/09/13 01:16:09;;;;;;;11.40;8.13;;;;;;;;;;5092426;28;20431;-71
2022/09/13 01:18:37;;;;;;;8.20;7.00;;;;;;;;;;5091794;28;20490;-71
2022/09/13 01:21:24;;;;;;;10.60;8.43;;;;;;;;;;5092353;28;20446;-71
2022/09/13 01:23:59;;;;;;;13.70;7.00;;;;;;;;;;5092052;28;20902;-71
2022/09/13 01:26:35;;;;;;;9.53;7.47;;;;;;;;;;5092035;28;20441;-71
2022/09/13 01:29:12;;;;;;;10.77;7.87;;;;;;;;;;5091878;28;20430;-71
2022/09/13 01:31:43;;;;;;;13.27;8.10;;;;;;;;;;5095824;28;20434;-71
2022/09/13 01:34:16;;;;;;;9.87;7.20;;;;;;;;;;5095486;28;20477;-71
2022/09/13 01:36:48;;;;;;;9.77;8.03;;;;;;;;;;5095783;28;20885;-71
2022/09/13 01:39:18;;;;;;;11.97;8.73;;;;;;;;;;5095384;28;20471;-71
2022/09/13 01:41:53;;;;;;;8.30;7.17;;;;;;;;;;5095297;28;20462;-71
2022/09/13 01:44:25;;;;;;;8.93;7.23;;;;;;;;;;5095402;28;20473;-71
2022/09/13 01:46:59;;;;;;;11.30;7.90;;;;;;;;;;5095438;28;20460;-71
2022/09/13 01:49:32;;;;;;;14.80;8.53;;;;;;;;;;5095365;28;20481;-71
2022/09/13 01:52:01;;;;;;;8.43;6.70;;;;;;;;;;5095772;28;20897;-71
2022/09/13 01:54:31;;;;;;;8.33;7.43;;;;;;;;;;5094764;28;20481;-71
2022/09/13 01:57:00;;;;;;;8.27;6.73;;;;;;;;;;5095232;28;20496;-71
2022/09/13 01:59:34;;;;;;;8.30;7.20;;;;;;;;;;5095592;28;20983;-71
2022/09/13 02:02:03;;;;;;;9.17;6.93;;;;;;;;;;5095313;28;20954;-71
2022/09/13 02:04:35;;;;;;;9.73;6.90;;;;;;;;;;5095062;28;20855;-71
2022/09/13 02:07:03;;;;;;;8.73;6.70;;;;;;;;;;5095075;28;20508;-71
2022/09/13 02:09:33;;;;;;;7.80;6.83;;;;;;;;;;5095232;28;20836;-71
2022/09/13 02:12:05;;;;;;;7.00;6.30;;;;;;;;;;5095256;28;20958;-71
2022/09/13 02:14:35;;;;;;;14.90;11.73;;;;;;;;;;5094143;28;20482;-71
2022/09/13 02:17:04;;;;;;;11.60;8.70;;;;;;;;;;5094797;28;20459;-71
2022/09/13 02:19:36;;;;;;;7.73;6.33;;;;;;;;;;5095030;28;20487;-71
2022/09/13 02:22:04;;;;;;;8.63;6.53;;;;;;;;;;5094838;28;20828;-71
2022/09/13 02:24:33;;;;;;;14.27;6.53;;;;;;;;;;5094543;28;20463;-71
2022/09/13 02:27:03;;;;;;;9.73;6.80;;;;;;;;;;5095027;28;20446;-71
2022/09/13 02:29:32;;;;;;;7.87;6.27;;;;;;;;;;5094358;28;20458;-71
2022/09/13 02:32:02;;;;;;;6.60;5.60;;;;;;;;;;5094833;28;20450;-71
2022/09/13 02:34:33;;;;;;;8.43;7.37;;;;;;;;;;5094493;28;20475;-71
2022/09/13 02:37:01;;;;;;;8.20;6.40;;;;;;;;;;5094787;28;20811;-71
2022/09/13 02:39:29;;;;;;;9.63;6.47;;;;;;;;;;5094468;28;20487;-71
2022/09/13 02:41:59;;;;;;;9.13;6.53;;;;;;;;;;5093181;28;20485;-71
2022/09/13 02:44:29;;;;;;;9.33;7.10;;;;;;;;;;5094314;28;20470;-71
2022/09/13 02:47:01;;;;;;;7.43;6.60;;;;;;;;;;5094732;28;20454;-71
2022/09/13 02:49:30;;;;;;;8.20;7.00;;;;;;;;;;5094123;28;20446;-71
2022/09/13 02:52:03;;;;;;;7.40;6.27;;;;;;;;;;5094388;28;20867;-71
2022/09/13 02:54:32;;;;;;;11.27;7.33;;;;;;;;;;5094181;28;20481;-71
2022/09/13 02:57:01;;;;;;;8.60;6.87;;;;;;;;;;5093988;28;20451;-71
2022/09/13 02:59:28;;;;;;;9.53;7.70;;;;;;;;;;5094104;28;20487;-71
2022/09/13 03:01:58;;;;;;;10.67;7.30;;;;;;;;;;5093959;28;20450;-71
2022/09/13 03:04:25;;;;;;;6.80;5.93;;;;;;;;;;5094232;28;20964;-71
2022/09/13 03:06:53;;;;;;;7.93;6.50;;;;;;;;;;5093795;28;20451;-72
2022/09/13 03:09:22;;;;;;;11.63;7.03;;;;;;;;;;5093707;28;20829;-71
2022/09/13 03:11:57;;;;;;;15.03;10.60;;;;;;;;;;5093915;28;20450;-71
2022/09/13 03:14:33;;;;;;;7.37;6.50;;;;;;;;;;5093120;28;20470;-71
2022/09/13 03:17:06;;;;;;;7.70;6.57;;;;;;;;;;5093811;28;20872;-71
2022/09/13 03:19:40;;;;;;;8.83;6.70;;;;;;;;;;5093723;28;20809;-71
2022/09/13 03:22:16;;;;;;;8.87;7.50;;;;;;;;;;5093872;28;20438;-71
2022/09/13 03:24:50;;;;;;;7.93;6.60;;;;;;;;;;5093455;28;20478;-71
2022/09/13 03:27:20;;;;;;;10.40;7.83;;;;;;;;;;5093746;28;20442;-71
2022/09/13 03:29:52;;;;;;;9.83;7.93;;;;;;;;;;5093301;28;20443;-71
2022/09/13 03:32:25;;;;;;;9.37;7.17;;;;;;;;;;5093758;28;20897;-71
2022/09/13 03:34:55;;;;;;;8.50;7.40;;;;;;;;;;5092842;28;20481;-71
2022/09/13 03:37:25;;;;;;;9.73;8.03;;;;;;;;;;5093180;28;20451;-71
2022/09/13 03:39:56;;;;;;;9.43;7.30;;;;;;;;;;5093309;28;20861;-71
2022/09/13 03:42:27;;;;;;;11.17;8.80;;;;;;;;;;5093101;28;21044;-71
2022/09/13 03:44:56;;;;;;;10.20;8.50;;;;;;;;;;5092818;28;20479;-71
2022/09/13 03:47:24;;;;;;;11.30;8.90;;;;;;;;;;5093253;28;20904;-71
2022/09/13 03:49:52;;;;;;;10.10;8.20;;;;;;;;;;5093157;28;20508;-71
2022/09/13 03:52:19;;;;;;;9.30;8.10;;;;;;;;;;5092857;28;20451;-71
2022/09/13 03:54:47;;;;;;;14.33;8.47;;;;;;;;;;5092764;28;20471;-71
2022/09/13 03:57:16;;;;;;;8.30;7.50;;;;;;;;;;5093155;28;20944;-71
2022/09/13 03:59:44;;;;;;;10.07;7.70;;;;;;;;;;5092833;28;20497;-71
2022/09/13 04:02:12;;;;;;;11.63;7.63;;;;;;;;;;5093180;28;20446;-71
2022/09/13 04:04:39;;;;;;;11.33;8.43;;;;;;;;;;5092557;28;20475;-71
2022/09/13 04:07:06;;;;;;;10.30;8.30;;;;;;;;;;5092628;28;20451;-71
2022/09/13 04:09:34;;;;;;;8.57;7.17;;;;;;;;;;5092648;28;20442;-71
2022/09/13 04:12:01;;;;;;;12.23;8.60;;;;;;;;;;5092925;28;20447;-71
2022/09/13 04:14:29;;;;;;;9.20;7.13;;;;;;;;;;5091886;28;20502;-71
2022/09/13 04:16:57;;;;;;;9.50;7.87;;;;;;;;;;5092527;28;20478;-71
2022/09/13 04:19:25;;;;;;;13.03;8.33;;;;;;;;;;5092997;28;20480;-71
2022/09/13 04:21:53;;;;;;;13.10;8.03;;;;;;;;;;5092889;28;20458;-71
2022/09/13 04:24:21;;;;;;;11.40;7.93;;;;;;;;;;5092496;28;20462;-71
2022/09/13 04:26:50;;;;;;;14.53;9.80;;;;;;;;;;5092458;28;20465;-71
2022/09/13 04:29:17;;;;;;;8.43;7.43;;;;;;;;;;5092368;28;20819;-71
2022/09/13 04:31:45;;;;;;;11.63;7.63;;;;;;;;;;5092384;28;20463;-71
2022/09/13 04:34:12;;;;;;;9.43;7.60;;;;;;;;;;5092254;28;20481;-71
2022/09/13 04:36:39;;;;;;;7.10;6.40;;;;;;;;;;5092634;28;20453;-71
2022/09/13 04:39:07;;;;;;;11.93;8.10;;;;;;;;;;5092730;28;20459;-71
2022/09/13 04:41:34;;;;;;;10.73;7.33;;;;;;;;;;5092249;28;20490;-71
2022/09/13 04:44:01;;;;;;;10.67;6.93;;;;;;;;;;5092393;28;20471;-71
2022/09/13 04:46:29;;;;;;;9.27;8.17;;;;;;;;;;5092242;28;20451;-71
2022/09/13 04:48:57;;;;;;;12.43;7.80;;;;;;;;;;5092369;28;20812;-71
2022/09/13 04:51:24;;;;;;;14.77;10.67;;;;;;;;;;5092440;28;20447;-71
2022/09/13 04:53:56;;;;;;;15.97;11.43;;;;;;;;;;5092118;28;20936;-71
2022/09/13 04:56:23;;;;;;;10.73;8.37;;;;;;;;;;5092066;28;20443;-71
2022/09/13 04:58:51;;;;;;;10.07;7.47;;;;;;;;;;5092531;28;20931;-71
2022/09/13 05:01:18;;;;;;;10.80;8.47;;;;;;;;;;5092276;28;20927;-71
2022/09/13 05:03:46;;;;;;;10.00;7.70;;;;;;;;;;5091770;28;20466;-71
2022/09/13 05:06:16;;;;;;;10.13;8.20;;;;;;;;;;5095422;28;20843;-71
2022/09/13 05:08:44;;;;;;;8.97;7.73;;;;;;;;;;5096313;28;20796;-70
2022/09/13 05:11:11;;;;;;;8.17;7.30;;;;;;;;;;5096054;28;20446;-70
2022/09/13 05:13:39;;;;;;;8.60;6.53;;;;;;;;;;5095970;28;20446;-70
2022/09/13 05:16:07;;;;;;;9.43;7.53;;;;;;;;;;5096229;28;20435;-70
2022/09/13 05:18:35;;;;;;;6.77;5.93;;;;;;;;;;5095513;28;20447;-70
2022/09/13 05:21:03;;;;;;;11.03;7.30;;;;;;;;;;5096081;28;20487;-70
2022/09/13 05:23:32;;;;;;;7.23;6.53;;;;;;;;;;5081983;28;20463;-71
2022/09/13 05:26:00;;;;;;;7.20;6.50;;;;;;;;;;5095529;28;20815;-71
2022/09/13 05:28:28;;;;;;;6.43;5.77;;;;;;;;;;5095871;28;20455;-71
2022/09/13 05:30:55;;;;;;;7.17;6.37;;;;;;;;;;5095901;28;20781;-71
2022/09/13 05:33:23;;;;;;;7.13;6.07;;;;;;;;;;5095702;28;20499;-71
2022/09/13 05:35:50;;;;;;;7.50;6.70;;;;;;;;;;5095552;28;20451;-71
2022/09/13 05:38:18;;;;;;;8.83;6.43;;;;;;;;;;5095860;28;20912;-71
2022/09/13 05:40:46;;;;;;;8.37;6.37;;;;;;;;;;5095190;28;20493;-71
2022/09/13 05:43:13;;;;;;;9.90;6.60;;;;;;;;;;5095520;28;20438;-71
2022/09/13 05:45:40;;;;;;;7.77;6.00;;;;;;;;;;5095553;28;20474;-71
2022/09/13 05:48:08;;;;;;;25.07;6.43;;;;;;;;;;5095693;28;20458;-71
2022/09/13 05:50:37;;;;;;;6.30;4.37;;;;;;;;;;5095449;28;20450;-71
2022/09/13 05:53:05;;;;;;;5.17;4.67;;;;;;;;;;5095550;28;20443;-71
2022/09/13 05:55:32;;;;;;;7.70;4.93;;;;;;;;;;5094916;28;20585;-71
2022/09/13 05:58:01;;;;;;;11.27;5.00;;;;;;;;;;5095440;28;20817;-71
2022/09/13 06:00:30;;;;;;;7.60;4.47;;;;;;;;;;5095032;28;20478;-71
2022/09/13 06:02:57;;;;;;;5.57;4.03;;;;;;;;;;5095023;28;20454;-71
2022/09/13 06:05:25;;;;;;;5.37;4.00;;;;;;;;;;5094715;28;20482;-71
2022/09/13 06:07:52;;;;;;;4.97;4.57;;;;;;;;;;5094934;28;20451;-71
2022/09/13 06:10:20;;;;;;;4.20;3.80;;;;;;;;;;5084906;28;20455;-71
2022/09/13 06:12:51;;;;;;;4.43;3.67;;;;;;;;;;5093229;28;20985;-71
2022/09/13 06:15:19;;;;;;;5.30;4.17;;;;;;;;;;5093562;28;21006;-71
2022/09/13 06:17:47;;;;;;;3.63;3.33;;;;;;;;;;5093221;28;20439;-71
2022/09/13 06:20:15;;;;;;;3.53;3.23;;;;;;;;;;5093228;28;20481;-71
2022/09/13 06:22:43;;;;;;;3.80;3.07;;;;;;;;;;5093328;28;20451;-71
2022/09/13 06:25:10;;;;;;;3.73;3.43;;;;;;;;;;5093027;28;20470;-71
2022/09/13 06:27:37;;;;;;;9.93;3.23;;;;;;;;;;5093065;28;20461;-71
2022/09/13 06:30:07;;;;;;;6.47;4.03;;;;;;;;;;5093436;28;20451;-71
2022/09/13 06:32:36;;;;;;;3.77;3.47;;;;;;;;;;5092863;28;20439;-71
2022/09/13 06:35:03;;;;;;;4.33;3.10;;;;;;;;;;5092702;28;20566;-71
2022/09/13 06:37:30;;;;;;;3.37;3.07;;;;;;;;;;5093275;28;20889;-71
2022/09/13 06:39:57;;;;;;;5.77;3.10;;;;;;;;;;5093241;28;20454;-71
2022/09/13 06:42:24;;;;;;;4.60;3.10;;;;;;;;;;5093080;28;21008;-71
2022/09/13 06:44:51;;;;;;;3.50;3.20;;;;;;;;;;5093175;28;20467;-71
2022/09/13 06:47:18;;;;;;;4.10;2.63;;;;;;;;;;5092889;28;20604;-72
2022/09/13 06:49:47;;;;;;;4.03;3.67;;;;;;;;;;5093044;28;20457;-72
2022/09/13 06:52:14;;;;;;;4.07;2.40;;;;;;;;;;5093199;28;20446;-72
2022/09/13 06:54:42;;;;;;;8.40;2.97;;;;;;;;;;5092490;28;20466;-71
2022/09/13 06:57:09;;;;;;;3.90;3.07;;;;;;;;;;5092893;28;20457;-71
2022/09/13 06:59:36;;;;;;;2.80;2.43;;;;;;;;;;5094007;28;20802;-71
2022/09/13 07:02:03;;;;;;;2.20;2.00;;;;;;;;;;5094040;28;20486;-71
2022/09/13 07:04:30;;;;;;;3.90;3.20;;;;;;;;;;5093947;28;20994;-71
2022/09/13 07:06:59;;;;;;;4.50;3.10;;;;;;;;;;5094402;28;20455;-71
2022/09/13 07:09:27;;;;;;;2.93;2.20;;;;;;;;;;5094105;28;20493;-71
2022/09/13 07:11:55;;;;;;;7.10;2.20;;;;;;;;;;5094276;28;20462;-71
2022/09/13 07:14:23;;;;;;;8.10;3.00;;;;;;;;;;5093601;28;20471;-71
2022/09/13 07:16:51;;;;;;;3.17;2.87;;;;;;;;;;5094285;28;20545;-71
2022/09/13 07:19:19;;;;;;;3.77;2.63;;;;;;;;;;5094001;28;20445;-71
2022/09/13 07:21:48;;;;;;;2.87;2.33;;;;;;;;;;5094035;28;20522;-71
2022/09/13 07:24:17;;;;;;;4.40;2.20;;;;;;;;;;5093994;28;20523;-71
2022/09/13 07:26:45;;;;;;;2.57;1.90;;;;;;;;;;5094220;28;20832;-71
2022/09/13 07:29:15;;;;;;;2.47;2.27;;;;;;;;;;5093089;28;20462;-71
2022/09/13 07:31:43;;;;;;;4.40;2.30;;;;;;;;;;5091090;28;20890;-71
2022/09/13 07:34:13;;;;;;;3.63;2.27;;;;;;;;;;5071916;28;20472;-71
2022/09/13 07:36:40;;;;;;;3.43;2.80;;;;;;;;;;5072152;28;20807;-71
2022/09/13 07:39:07;;;;;;;4.27;2.33;;;;;;;;;;5072181;28;20788;-71
2022/09/13 07:41:36;;;;;;;2.90;2.10;;;;;;;;;;5072024;28;20999;-71
2022/09/13 07:44:05;;;;;;;4.30;1.77;;;;;;;;;;5086444;28;20575;-71
2022/09/13 07:46:35;;;;;;;7.83;2.17;;;;;;;;;;5092526;28;20458;-72
2022/09/13 07:49:02;;;;;;;7.43;1.97;;;;;;;;;;5092432;28;20857;-71
2022/09/13 07:51:30;;;;;;;3.70;2.07;;;;;;;;;;5092095;28;20451;-71
2022/09/13 07:53:58;;;;;;;2.20;1.80;;;;;;;;;;5091926;28;20478;-71
2022/09/13 07:56:26;;;;;;;3.63;1.93;;;;;;;;;;5091663;28;20442;-71
2022/09/13 07:58:55;;;;;;;2.33;2.00;;;;;;;;;;5092454;28;20439;-71
2022/09/13 08:01:23;;;;;;;2.93;1.93;;;;;;;;;;5091839;28;20975;-71
2022/09/13 08:03:53;;;;;;;2.80;2.27;;;;;;;;;;5091564;28;20471;-71
2022/09/13 08:06:20;;;;;;;5.27;2.03;;;;;;;;;;5091798;28;20462;-72
2022/09/13 08:08:48;;;;;;;2.67;2.10;;;;;;;;;;5092008;28;20458;-72
2022/09/13 08:11:17;;;;;;;3.03;2.70;;;;;;;;;;5091920;28;20447;-71
2022/09/13 08:13:44;;;;;;;2.53;1.87;;;;;;;;;;5091547;28;20535;-71
2022/09/13 08:16:12;;;;;;;3.03;2.10;;;;;;;;;;5092064;28;20450;-71
2022/09/13 08:18:44;;;;;;;2.67;2.03;;;;;;;;;;5091752;28;20446;-71
2022/09/13 08:21:11;;;;;;;3.93;1.93;;;;;;;;;;5091514;28;20519;-71
2022/09/13 08:23:38;;;;;;;3.47;1.77;;;;;;;;;;5091368;28;20474;-72
2022/09/13 08:26:06;;;;;;;3.70;2.03;;;;;;;;;;5091443;28;20454;-72
2022/09/13 08:28:34;;;;;;;2.60;1.90;;;;;;;;;;5091612;28;20511;-71
2022/09/13 08:31:05;;;;;;;3.07;1.90;;;;;;;;;;5091587;28;20446;-71
2022/09/13 08:33:33;;;;;;;2.20;2.00;;;;;;;;;;5090929;28;20454;-72
2022/09/13 08:36:01;;;;;;;2.27;2.03;;;;;;;;;;5091306;28;20479;-72
2022/09/13 08:38:28;;;;;;;3.27;2.00;;;;;;;;;;5091508;28;20461;-72
2022/09/13 08:40:56;;;;;;;3.50;1.90;;;;;;;;;;5094191;28;20490;-72
2022/09/13 08:43:29;;;;;;;2.67;1.60;;;;;;;;;;5095722;28;20443;-72
2022/09/13 08:45:59;;;;;;;3.57;1.97;;;;;;;;;;5095797;28;20454;-72
2022/09/13 08:48:31;;;;;;;3.70;1.87;;;;;;;;;;5095377;28;20461;-72
2022/09/13 08:51:02;;;;;;;3.23;1.83;;;;;;;;;;5095874;28;20467;-72
2022/09/13 08:53:30;;;;;;;3.50;2.10;;;;;;;;;;5095493;28;20454;-72
2022/09/13 08:56:02;;;;;;;2.07;1.87;;;;;;;;;;5095510;28;20789;-72
2022/09/13 08:58:37;;;;;;;6.50;1.83;;;;;;;;;;5095418;28;20462;-72
2022/09/13 09:01:07;;;;;;;2.00;1.67;;;;;;;;;;5095092;28;20492;-72
2022/09/13 09:03:39;;;;;;;3.23;2.07;;;;;;;;;;5095099;28;20458;-72
2022/09/13 09:06:12;;;;;;;2.57;2.10;;;;;;;;;;5095101;28;20521;-72
2022/09/13 09:08:41;;;;;;;2.10;1.67;;;;;;;;;;5086103;28;20993;-72
2022/09/13 09:11:11;;;;;;;2.30;1.80;;;;;;;;;;5075150;28;20828;-72
2022/09/13 09:13:41;;;;;;;2.43;1.77;;;;;;;;;;5074896;28;20454;-71
2022/09/13 09:16:13;;;;;;;3.57;2.83;;;;;;;;;;5075277;28;20458;-72
2022/09/13 09:18:43;;;;;;;1.90;1.70;;;;;;;;;;5075079;28;20436;-72
2022/09/13 09:21:15;;;;;;;1.57;1.37;;;;;;;;;;5075121;28;20860;-72
2022/09/13 09:23:50;;;;;;;2.00;1.80;;;;;;;;;;5074449;28;20477;-72
2022/09/13 09:26:18;;;;;;;2.40;1.50;;;;;;;;;;5074943;28;21006;-71
2022/09/13 09:28:47;;;;;;;2.27;1.50;;;;;;;;;;5074143;28;20566;-72
2022/09/13 09:31:17;;;;;;;6.43;1.80;;;;;;;;;;5074397;28;20449;-72
2022/09/13 09:33:50;;;;;;;5.07;2.07;;;;;;;;;;5074424;28;20479;-71
2022/09/13 09:36:23;;;;;;;4.00;2.10;;;;;;;;;;5074212;28;20466;-72
2022/09/13 09:38:50;;;;;;;2.13;1.60;;;;;;;;;;5074817;28;20446;-72
2022/09/13 09:41:24;;;;;;;2.20;1.90;;;;;;;;;;5074212;28;20503;-72
2022/09/13 09:43:55;;;;;;;2.20;1.67;;;;;;;;;;5074163;28;20582;-72
2022/09/13 09:46:24;;;;;;;2.20;2.00;;;;;;;;;;5074001;28;20517;-72
2022/09/13 09:48:53;;;;;;;7.97;3.87;;;;;;;;;;5074948;28;20444;-72
2022/09/13 09:51:23;;;;;;;3.03;1.80;;;;;;;;;;5074847;28;20447;-72
2022/09/13 09:53:53;;;;;;;3.80;1.80;;;;;;;;;;5076780;28;20941;-72
2022/09/13 09:56:25;;;;;;;3.83;1.70;;;;;;;;;;5093705;28;20446;-72
2022/09/13 09:58:53;;;;;;;2.10;1.90;;;;;;;;;;5094171;28;20454;-72
2022/09/13 10:01:22;;;;;;;1.97;1.77;;;;;;;;;;5093860;28;20565;-72
2022/09/13 10:03:55;;;;;;;2.63;1.50;;;;;;;;;;5094010;28;20525;-72
2022/09/13 10:06:26;;;;;;;4.00;2.00;;;;;;;;;;5094154;28;20805;-72
2022/09/13 10:08:58;;;;;;;3.30;1.50;;;;;;;;;;5093996;28;20881;-72
2022/09/13 10:11:38;;;;;;;4.37;1.90;;;;;;;;;;5093735;28;20443;-73
2022/09/13 10:14:05;;;;;;;3.37;3.00;;;;;;;;;;5093397;28;20470;-72
2022/09/13 10:16:32;;;;;;;2.13;1.63;;;;;;;;;;5093487;28;20437;-72
2022/09/13 10:19:22;;;;;;;4.17;1.60;;;;;;;;;;5093584;28;20986;-72
2022/09/13 10:22:01;;;;;;;3.23;1.63;;;;;;;;;;5093772;28;20490;-72
2022/09/13 10:24:29;;;;;;;1.80;1.40;;;;;;;;;;5076440;28;20479;-72
2022/09/13 10:26:56;;;;;;;3.30;1.50;;;;;;;;;;5074712;28;20533;-72
2022/09/13 10:29:24;;;;;;;3.63;1.90;;;;;;;;;;5074358;28;20447;-72
2022/09/13 10:31:54;;;;;;;2.20;1.70;;;;;;;;;;5075053;28;20448;-73
2022/09/13 10:34:22;;;;;;;1.90;1.70;;;;;;;;;;5074547;28;20507;-72
2022/09/13 10:36:53;;;;;;;5.00;1.70;;;;;;;;;;5074501;28;20817;-72
2022/09/13 10:39:23;;;;;;;3.23;1.87;;;;;;;;;;5074422;28;20451;-72
2022/09/13 10:41:52;;;;;;;2.33;2.13;;;;;;;;;;5074281;28;20484;-72
2022/09/13 10:44:24;;;;;;;2.10;1.63;;;;;;;;;;5074653;28;20476;-72
2022/09/13 10:46:52;;;;;;;2.57;1.80;;;;;;;;;;5074757;28;20838;-72
2022/09/13 10:49:38;;;;;;;2.23;1.90;;;;;;;;;;5074322;28;20456;-72
2022/09/13 10:52:20;;;;;;;1.60;1.50;;;;;;;;;;5074247;28;20921;-73
2022/09/13 10:54:48;;;;;;;5.80;1.57;;;;;;;;;;5073870;28;20989;-72
2022/09/13 10:57:30;;;;;;;1.90;1.70;;;;;;;;;;5074269;28;20460;-73
2022/09/13 10:59:57;;;;;;;2.43;1.70;;;;;;;;;;5074336;28;20515;-73
2022/09/13 11:02:33;;;;;;;2.80;2.00;;;;;;;;;;5073776;28;20486;-73
2022/09/13 11:05:09;;;;;;;5.33;1.57;;;;;;;;;;5074002;28;20485;-73
2022/09/13 11:07:48;;;;;;;2.57;1.70;;;;;;;;;;5074327;28;20451;-72
2022/09/13 11:10:21;;;;;;;2.20;2.00;;;;;;;;;;5074402;28;20458;-72
2022/09/13 11:12:53;;;;;;;2.53;1.37;;;;;;;;;;5074009;28;20454;-72
2022/09/13 11:15:28;;;;;;;2.90;2.03;;;;;;;;;;5072957;28;20471;-72
2022/09/13 11:18:02;;;;;;;2.67;1.57;;;;;;;;;;5073491;28;20455;-72
2022/09/13 11:20:36;;;;;;;1.90;1.57;;;;;;;;;;5073430;28;20509;-73
2022/09/13 11:23:23;;;;;;;2.00;1.70;;;;;;;;;;5073415;28;21012;-73
2022/09/13 11:26:00;;;;;;;6.47;1.77;;;;;;;;;;5073238;28;20543;-73
2022/09/13 11:28:33;;;;;;;2.50;2.07;;;;;;;;;;5073212;28;20451;-73
2022/09/13 11:31:05;;;;;;;2.03;1.73;;;;;;;;;;5073412;28;20459;-72
2022/09/13 11:33:37;;;;;;;1.73;1.60;;;;;;;;;;5072978;28;20448;-72
2022/09/13 11:36:14;;;;;;;2.10;1.47;;;;;;;;;;5073227;28;20447;-72
2022/09/13 11:38:49;;;;;;;2.50;2.10;;;;;;;;;;5073145;28;20444;-72
2022/09/13 11:41:27;;;;;;;2.27;1.57;;;;;;;;;;5073017;28;20458;-72
2022/09/13 11:44:12;;;;;;;2.40;1.40;;;;;;;;;;5072748;28;20564;-72
2022/09/13 11:46:43;;;;;;;5.30;1.70;;;;;;;;;;5073078;28;20444;-72
2022/09/13 11:49:28;;;;;;;4.97;1.80;;;;;;;;;;5073053;28;20456;-72
2022/09/13 11:52:00;;;;;;;1.93;1.73;;;;;;;;;;5072881;28;20439;-73
2022/09/13 11:54:35;;;;;;;2.60;1.80;;;;;;;;;;5072557;28;20467;-72
2022/09/13 11:57:06;;;;;;;2.00;1.40;;;;;;;;;;5072972;28;20446;-72
2022/09/13 11:59:37;;;;;;;3.20;2.10;;;;;;;;;;5073002;28;20444;-72
2022/09/13 12:02:12;;;;;;;3.33;1.60;;;;;;;;;;5073100;28;20483;-72
2022/09/13 12:04:44;;;;;;;2.90;1.90;;;;;;;;;;5072839;28;20487;-73
2022/09/13 12:07:15;;;;;;;5.17;1.73;;;;;;;;;;5073114;28;20945;-72
2022/09/13 12:09:46;;;;;;;2.47;1.63;;;;;;;;;;5073280;28;20948;-72
2022/09/13 12:12:15;;;;;;;1.60;1.47;;;;;;;;;;5092423;28;20481;-72
2022/09/13 12:14:44;;;;;;;5.00;2.00;;;;;;;;;;5092733;28;20462;-72
2022/09/13 12:17:18;;;;;;;3.70;1.73;;;;;;;;;;5092929;28;20450;-72
2022/09/13 12:19:46;;;;;;;1.70;1.53;;;;;;;;;;5092996;28;20443;-72
2022/09/13 12:22:14;;;;;;;7.20;1.57;;;;;;;;;;5092883;28;20493;-72
2022/09/13 12:24:44;;;;;;;1.50;1.40;;;;;;;;;;5092795;28;20466;-72
2022/09/13 12:27:14;;;;;;;2.83;1.70;;;;;;;;;;5093231;28;20459;-72
2022/09/13 12:29:48;;;;;;;4.30;1.60;;;;;;;;;;5092941;28;20455;-72
2022/09/13 12:32:16;;;;;;;1.70;1.60;;;;;;;;;;5092915;28;20941;-72
2022/09/13 12:34:44;;;;;;;3.93;1.80;;;;;;;;;;5093313;28;20475;-72
2022/09/13 12:37:20;;;;;;;1.60;1.50;;;;;;;;;;5093743;28;20446;-72
2022/09/13 12:40:00;;;;;;;2.73;1.80;;;;;;;;;;5093680;28;20449;-72
2022/09/13 12:42:52;;;;;;;1.97;1.50;;;;;;;;;;5093064;28;20577;-73
2022/09/13 12:45:28;;;;;;;2.20;1.83;;;;;;;;;;5093410;28;20478;-72
2022/09/13 12:48:03;;;;;;;4.00;1.73;;;;;;;;;;5093476;28;20806;-72
2022/09/13 12:50:45;;;;;;;2.63;1.50;;;;;;;;;;5093212;28;20565;-72
2022/09/13 12:53:29;;;;;;;2.57;1.77;;;;;;;;;;5093232;28;20442;-72
2022/09/13 12:56:18;;;;;;;3.33;1.90;;;;;;;;;;5093179;28;20806;-72
2022/09/13 12:58:57;;;;;;;3.67;1.37;;;;;;;;;;5092666;28;20455;-72
2022/09/13 13:01:26;;;;;;;4.60;1.60;;;;;;;;;;5092917;28;20450;-72
2022/09/13 13:03:54;;;;;;;5.90;1.50;;;;;;;;;;5092588;28;20861;-72
2022/09/13 13:06:32;;;;;;;7.03;2.30;;;;;;;;;;5093064;28;20455;-72
2022/09/13 13:09:02;;;;;;;3.10;1.60;;;;;;;;;;5093008;28;20457;-72
2022/09/13 13:11:30;;;;;;;4.37;1.83;;;;;;;;;;5093248;28;20462;-72
2022/09/13 13:13:59;;;;;;;2.00;1.63;;;;;;;;;;5092664;28;21053;-72
2022/09/13 13:16:30;;;;;;;4.40;1.70;;;;;;;;;;5092786;28;20913;-72
2022/09/13 13:18:58;;;;;;;3.73;2.20;;;;;;;;;;5092994;28;20522;-72
2022/09/13 13:21:30;;;;;;;2.53;1.80;;;;;;;;;;5092932;28;20542;-72
2022/09/13 13:24:17;;;;;;;3.13;1.97;;;;;;;;;;5092959;28;20516;-72
2022/09/13 13:26:45;;;;;;;2.90;1.63;;;;;;;;;;5095275;28;20545;-72
2022/09/13 13:29:15;;;;;;;2.90;1.90;;;;;;;;;;5096596;28;20447;-72
2022/09/13 13:31:44;;;;;;;2.47;2.10;;;;;;;;;;5096814;28;20520;-72
2022/09/13 13:34:30;;;;;;;3.50;1.80;;;;;;;;;;5096712;28;21010;-72
2022/09/13 13:36:59;;;;;;;8.73;2.87;;;;;;;;;;5096610;28;20446;-72
2022/09/13 13:39:34;;;;;;;2.47;1.97;;;;;;;;;;5096821;28;20872;-72
2022/09/13 13:42:01;;;;;;;2.20;1.57;;;;;;;;;;5096339;28;20462;-72
2022/09/13 13:44:48;;;;;;;5.53;2.00;;;;;;;;;;5096282;28;20518;-72
2022/09/13 13:47:34;;;;;;;3.10;2.57;;;;;;;;;;5096577;28;21017;-72
2022/09/13 13:50:14;;;;;;;2.50;1.90;;;;;;;;;;5096877;28;20461;-72
2022/09/13 13:52:51;;;;;;;2.50;1.90;;;;;;;;;;5096419;28;20476;-72
2022/09/13 13:55:32;;;;;;;4.60;2.00;;;;;;;;;;5096394;28;20504;-72
2022/09/13 13:58:01;;;;;;;2.50;2.00;;;;;;;;;;5096233;28;20435;-72
2022/09/13 14:00:30;;;;;;;3.40;2.47;;;;;;;;;;5096567;28;20445;-72
2022/09/13 14:03:03;;;;;;;3.50;1.63;;;;;;;;;;5096267;28;21028;-72
2022/09/13 14:05:34;;;;;;;2.57;2.10;;;;;;;;;;5095606;28;20470;-72
2022/09/13 14:08:11;;;;;;;1.90;1.50;;;;;;;;;;5095992;28;20966;-72
2022/09/13 14:10:42;;;;;;;3.80;2.00;;;;;;;;;;5095576;28;20459;-72
2022/09/13 14:13:23;;;;;;;5.27;2.00;;;;;;;;;;5095609;28;20434;-72
2022/09/13 14:15:54;;;;;;;2.10;1.90;;;;;;;;;;5095931;28;20800;-72
2022/09/13 14:18:51;;;;;;;3.03;1.60;;;;;;;;;;5095452;28;20950;-72
2022/09/13 14:21:22;;;;;;;2.50;2.07;;;;;;;;;;5095707;28;20427;-72
2022/09/13 14:23:49;;;;;;;6.50;2.87;;;;;;;;;;5095136;28;20494;-72
2022/09/13 14:26:16;;;;;;;2.40;2.20;;;;;;;;;;5095770;28;20538;-72
2022/09/13 14:28:43;;;;;;;2.30;1.67;;;;;;;;;;5095817;28;20446;-72
2022/09/13 14:31:17;;;;;;;1.77;1.60;;;;;;;;;;5095424;28;20438;-72
2022/09/13 14:33:44;;;;;;;2.63;1.73;;;;;;;;;;5095707;28;20824;-73
2022/09/13 14:36:17;;;;;;;2.40;1.70;;;;;;;;;;5095606;28;20427;-72
2022/09/13 14:38:49;;;;;;;3.43;1.43;;;;;;;;;;5095679;28;20457;-72
2022/09/13 14:41:18;;;;;;;7.20;1.60;;;;;;;;;;5094621;28;20500;-73
2022/09/13 14:43:45;;;;;;;5.90;1.43;;;;;;;;;;5093128;28;20494;-73
2022/09/13 14:46:15;;;;;;;4.27;1.70;;;;;;;;;;5094847;28;20523;-74
2022/09/13 14:48:45;;;;;;;3.47;1.60;;;;;;;;;;5095136;28;20447;-74
2022/09/13 14:51:17;;;;;;;2.00;1.57;;;;;;;;;;5095499;28;20451;-74
2022/09/13 14:53:46;;;;;;;2.23;1.70;;;;;;;;;;5078223;28;20881;-73
2022/09/13 14:56:17;;;;;;;2.23;1.90;;;;;;;;;;5073671;28;20460;-73
2022/09/13 14:58:45;;;;;;;3.13;1.80;;;;;;;;;;5074191;28;20456;-73
2022/09/13 15:01:14;;;;;;;2.07;1.50;;;;;;;;;;5074443;28;20452;-73